createdAt,value
2018-02-01T00:00:26.547Z,17.03
2018-02-01T00:02:54.738Z,17.00
2018-02-01T00:05:22.902Z,16.70
2018-02-01T00:07:51.099Z,17.93
2018-02-01T00:10:19.271Z,19.90
2018-02-01T00:12:47.430Z,20.23
2018-02-01T00:15:15.622Z,24.50
2018-02-01T00:17:43.780Z,26.57
2018-02-01T00:20:11.971Z,26.53
2018-02-01T00:22:40.173Z,29.10
2018-02-01T00:25:09.131Z,29.20
2018-02-01T00:27:37.335Z,30.00
2018-02-01T00:30:05.524Z,31.00
2018-02-01T00:32:34.474Z,28.50
2018-02-01T00:35:02.670Z,28.77
2018-02-01T00:37:30.864Z,27.73
2018-02-01T00:39:59.801Z,26.47
2018-02-01T00:42:27.995Z,28.80
2018-02-01T00:44:56.169Z,30.83
2018-02-01T00:47:24.333Z,27.33
2018-02-01T00:49:52.502Z,26.47
2018-02-01T00:52:20.716Z,26.77
2018-02-01T00:54:48.887Z,27.17
2018-02-01T00:57:17.079Z,23.47
2018-02-01T00:59:46.032Z,21.50
2018-02-01T01:02:14.233Z,22.70
2018-02-01T01:04:42.441Z,20.20
2018-02-01T01:07:10.742Z,20.30
2018-02-01T01:09:38.909Z,15.53
2018-02-01T01:12:07.080Z,16.73
2018-02-01T01:14:35.253Z,16.17
2018-02-01T01:17:03.452Z,17.27
2018-02-01T01:19:31.619Z,15.20
2018-02-01T01:21:59.795Z,14.80
2018-02-01T01:24:27.999Z,17.17
2018-02-01T01:26:56.181Z,13.97
2018-02-01T01:29:24.386Z,14.43
2018-02-01T01:31:52.569Z,15.80
2018-02-01T01:34:20.756Z,15.37
2018-02-01T01:36:48.927Z,15.70
2018-02-01T01:39:17.086Z,16.30
2018-02-01T01:41:45.277Z,14.70
2018-02-01T01:44:13.478Z,16.20
2018-02-01T01:46:41.669Z,14.90
2018-02-01T01:49:09.850Z,16.13
2018-02-01T01:51:38.032Z,15.43
2018-02-01T01:54:06.229Z,15.00
2018-02-01T01:56:35.161Z,13.90
2018-02-01T01:59:03.321Z,16.07
2018-02-01T02:01:31.506Z,16.20
2018-02-01T02:03:59.677Z,15.20
2018-02-01T02:06:27.889Z,13.62
2018-02-01T02:08:56.060Z,16.10
2018-02-01T02:11:24.217Z,17.20
2018-02-01T02:13:52.417Z,20.70
2018-02-01T02:16:20.611Z,20.62
2018-02-01T02:18:49.566Z,20.97
2018-02-01T02:21:17.729Z,20.30
2018-02-01T02:23:45.900Z,20.20
2018-02-01T02:26:14.078Z,22.07
2018-02-01T02:28:42.245Z,22.90
2018-02-01T02:31:10.471Z,21.03
2018-02-01T02:33:38.616Z,23.30
2018-02-01T02:36:06.791Z,24.43
2018-02-01T02:38:34.971Z,24.03
2018-02-01T02:41:03.142Z,22.97
2018-02-01T02:43:31.310Z,22.00
2018-02-01T02:46:00.069Z,23.63
2018-02-01T02:48:28.237Z,23.20
2018-02-01T02:50:56.407Z,22.43
2018-02-01T02:53:24.588Z,22.13
2018-02-01T02:55:52.786Z,20.83
2018-02-01T02:58:20.957Z,20.13
2018-02-01T03:00:49.128Z,21.57
2018-02-01T03:03:17.304Z,22.43
2018-02-01T03:05:45.459Z,19.53
2018-02-01T03:08:13.634Z,21.40
2018-02-01T03:10:41.814Z,21.20
2018-02-01T03:13:09.990Z,21.43
2018-02-01T03:15:38.164Z,17.53
2018-02-01T03:18:06.339Z,20.25
2018-02-01T03:20:34.529Z,18.83
2018-02-01T03:23:02.694Z,16.90
2018-02-01T03:25:30.869Z,17.17
2018-02-01T03:27:59.038Z,17.37
2018-02-01T03:30:27.234Z,14.83
2018-02-01T03:32:55.473Z,16.90
2018-02-01T03:35:23.633Z,15.57
2018-02-01T03:37:51.831Z,14.30
2018-02-01T03:40:20.023Z,14.43
2018-02-01T03:42:48.202Z,14.73
2018-02-01T03:45:16.365Z,13.97
2018-02-01T03:47:44.597Z,14.53
2018-02-01T03:50:13.541Z,13.47
2018-02-01T03:52:41.722Z,13.30
2018-02-01T03:55:09.893Z,14.13
2018-02-01T03:57:38.074Z,13.33
2018-02-01T04:00:07.011Z,14.00
2018-02-01T04:02:35.935Z,12.67
2018-02-01T04:05:04.127Z,13.63
2018-02-01T04:07:32.290Z,13.10
2018-02-01T04:10:00.458Z,12.57
2018-02-01T04:12:28.654Z,12.98
2018-02-01T04:14:56.842Z,13.90
2018-02-01T04:17:25.034Z,12.87
2018-02-01T04:19:53.987Z,12.30
2018-02-01T04:22:22.150Z,12.73
2018-02-01T04:24:50.343Z,13.50
2018-02-01T04:27:18.563Z,11.30
2018-02-01T04:29:47.498Z,13.50
2018-02-01T04:32:15.677Z,11.23
2018-02-01T04:34:43.866Z,11.47
2018-02-01T04:37:12.118Z,12.27
2018-02-01T04:39:40.302Z,13.80
2018-02-01T04:42:08.569Z,12.17
2018-02-01T04:44:36.746Z,12.30
2018-02-01T04:47:04.933Z,13.23
2018-02-01T04:49:33.105Z,12.60
2018-02-01T04:52:01.283Z,12.30
2018-02-01T04:54:29.498Z,12.53
2018-02-01T04:56:57.674Z,11.67
2018-02-01T04:59:26.660Z,12.57
2018-02-01T05:01:54.832Z,13.07
2018-02-01T05:04:23.041Z,12.25
2018-02-01T05:06:51.232Z,12.67
2018-02-01T05:09:19.433Z,12.47
2018-02-01T05:11:47.642Z,11.30
2018-02-01T05:14:16.589Z,11.70
2018-02-01T05:16:44.753Z,12.00
2018-02-01T05:19:12.978Z,10.67
2018-02-01T05:21:41.155Z,11.67
2018-02-01T05:24:10.102Z,11.63
2018-02-01T05:26:38.287Z,12.50
2018-02-01T05:29:06.468Z,14.83
2018-02-01T05:31:34.693Z,12.60
2018-02-01T05:34:02.858Z,15.77
2018-02-01T05:36:31.802Z,14.03
2018-02-01T05:38:59.980Z,13.83
2018-02-01T05:41:28.930Z,13.10
2018-02-01T05:43:57.102Z,13.33
2018-02-01T05:46:26.064Z,11.23
2018-02-01T05:48:54.235Z,11.40
2018-02-01T05:51:22.403Z,11.27
2018-02-01T05:53:50.601Z,11.98
2018-02-01T05:56:19.550Z,11.10
2018-02-01T05:58:47.731Z,10.60
2018-02-01T06:01:15.900Z,10.13
2018-02-01T06:03:44.863Z,11.47
2018-02-01T06:06:13.157Z,11.70
2018-02-01T06:08:41.517Z,11.48
2018-02-01T06:11:09.702Z,11.90
2018-02-01T06:13:37.925Z,11.88
2018-02-01T06:16:06.098Z,12.13
2018-02-01T06:18:34.285Z,11.63
2018-02-01T06:21:02.458Z,10.73
2018-02-01T06:23:30.619Z,11.67
2018-02-01T06:25:58.926Z,12.57
2018-02-01T06:28:28.006Z,11.38
2018-02-01T06:30:56.299Z,12.27
2018-02-01T06:33:25.540Z,13.23
2018-02-01T06:35:53.717Z,13.05
2018-02-01T06:38:21.897Z,13.70
2018-02-01T06:40:50.066Z,12.20
2018-02-01T06:43:18.237Z,11.50
2018-02-01T06:45:46.417Z,11.70
2018-02-01T06:48:14.581Z,11.07
2018-02-01T06:50:42.758Z,12.10
2018-02-01T06:53:10.977Z,12.88
2018-02-01T06:55:39.203Z,12.37
2018-02-01T06:58:07.451Z,14.23
2018-02-01T07:00:41.980Z,11.48
2018-02-01T07:03:10.217Z,12.10
2018-02-01T07:05:38.454Z,11.60
2018-02-01T07:08:06.674Z,11.20
2018-02-01T07:10:34.865Z,11.63
2018-02-01T07:13:03.856Z,11.33
2018-02-01T07:15:32.845Z,11.27
2018-02-01T07:18:01.055Z,14.10
2018-02-01T07:20:29.274Z,13.73
2018-02-01T07:22:57.493Z,12.50
2018-02-01T07:25:26.535Z,11.40
2018-02-01T07:27:54.821Z,11.70
2018-02-01T07:30:23.085Z,11.33
2018-02-01T07:32:51.303Z,12.63
2018-02-01T07:35:20.272Z,12.03
2018-02-01T07:37:48.457Z,12.40
2018-02-01T07:40:16.651Z,11.00
2018-02-01T07:42:45.650Z,11.17
2018-02-01T07:45:14.605Z,11.63
2018-02-01T07:47:42.789Z,12.17
2018-02-01T07:50:11.028Z,12.40
2018-02-01T07:52:39.217Z,12.90
2018-02-01T07:55:07.408Z,10.57
2018-02-01T07:57:35.577Z,11.37
2018-02-01T08:00:03.782Z,13.20
2018-02-01T08:02:31.972Z,13.47
2018-02-01T08:05:00.913Z,11.80
2018-02-01T08:07:29.543Z,10.53
2018-02-01T08:09:58.467Z,12.57
2018-02-01T08:12:26.629Z,11.10
2018-02-01T08:14:54.791Z,11.20
2018-02-01T08:17:23.735Z,10.47
2018-02-01T08:19:51.911Z,11.23
2018-02-01T08:22:20.078Z,11.53
2018-02-01T08:24:48.274Z,10.83
2018-02-01T08:27:16.446Z,10.53
2018-02-01T08:29:44.639Z,10.53
2018-02-01T08:32:12.846Z,11.80
2018-02-01T08:34:41.012Z,10.70
2018-02-01T08:37:09.179Z,10.87
2018-02-01T08:39:38.129Z,12.57
2018-02-01T08:42:06.295Z,11.03
2018-02-01T08:44:34.482Z,12.53
2018-02-01T08:47:04.178Z,10.03
2018-02-01T08:49:32.358Z,10.17
2018-02-01T08:52:00.519Z,10.87
2018-02-01T08:54:28.847Z,9.50
2018-02-01T08:56:57.782Z,10.70
2018-02-01T08:59:25.951Z,10.00
2018-02-01T09:01:54.116Z,9.53
2018-02-01T09:04:22.314Z,10.93
2018-02-01T09:06:50.483Z,10.20
2018-02-01T09:09:18.661Z,12.20
2018-02-01T09:11:46.838Z,10.87
2018-02-01T09:14:15.013Z,9.80
2018-02-01T09:16:43.209Z,11.13
2018-02-01T09:19:11.388Z,12.70
2018-02-01T09:21:39.550Z,11.47
2018-02-01T09:24:07.729Z,12.40
2018-02-01T09:26:35.897Z,12.30
2018-02-01T09:29:04.090Z,11.90
2018-02-01T09:31:32.278Z,12.73
2018-02-01T09:34:01.225Z,12.10
2018-02-01T09:36:29.401Z,15.57
2018-02-01T09:38:57.566Z,12.30
2018-02-01T09:41:25.744Z,14.70
2018-02-01T09:43:53.915Z,12.97
2018-02-01T09:46:22.102Z,12.53
2018-02-01T09:48:50.301Z,12.07
2018-02-01T09:51:18.470Z,14.37
2018-02-01T09:53:46.637Z,13.27
2018-02-01T09:56:14.843Z,12.80
2018-02-01T09:58:43.790Z,13.20
2018-02-01T10:01:11.999Z,15.53
2018-02-01T10:03:40.174Z,15.03
2018-02-01T10:06:08.342Z,13.10
2018-02-01T10:08:36.526Z,11.77
2018-02-01T10:11:04.701Z,11.80
2018-02-01T10:13:32.870Z,11.37
2018-02-01T10:16:01.052Z,11.50
2018-02-01T10:18:29.230Z,12.67
2018-02-01T10:20:58.164Z,12.00
2018-02-01T10:23:26.342Z,11.30
2018-02-01T10:25:54.533Z,11.50
2018-02-01T10:28:22.717Z,12.60
2018-02-01T10:30:50.886Z,10.90
2018-02-01T10:33:19.055Z,8.43
2018-02-01T10:35:47.254Z,9.43
2018-02-01T10:38:15.458Z,9.87
2018-02-01T10:40:44.438Z,14.00
2018-02-01T10:43:12.667Z,8.90
2018-02-01T10:45:40.797Z,7.30
2018-02-01T10:48:09.778Z,6.90
2018-02-01T10:50:37.926Z,7.93
2018-02-01T10:53:06.107Z,7.17
2018-02-01T10:55:34.286Z,7.53
2018-02-01T10:58:02.449Z,6.80
2018-02-01T11:00:30.624Z,6.33
2018-02-01T11:02:58.791Z,5.70
2018-02-01T11:05:26.973Z,7.83
2018-02-01T11:07:55.142Z,6.40
2018-02-01T11:10:23.305Z,6.27
2018-02-01T11:12:51.490Z,7.60
2018-02-01T11:15:19.689Z,6.70
2018-02-01T11:17:47.857Z,6.93
2018-02-01T11:20:16.019Z,7.13
2018-02-01T11:22:44.191Z,6.07
2018-02-01T11:25:12.358Z,6.63
2018-02-01T11:27:40.529Z,6.80
2018-02-01T11:30:08.706Z,6.33
2018-02-01T11:32:36.886Z,6.00
2018-02-01T11:35:05.041Z,6.97
2018-02-01T11:37:33.201Z,6.07
2018-02-01T11:40:01.374Z,7.23
2018-02-01T11:42:29.537Z,6.13
2018-02-01T11:44:58.466Z,7.33
2018-02-01T11:47:26.641Z,7.57
2018-02-01T11:49:54.836Z,7.80
2018-02-01T11:52:23.010Z,7.70
2018-02-01T11:54:51.180Z,7.73
2018-02-01T11:57:19.358Z,7.07
2018-02-01T11:59:47.526Z,6.57
2018-02-01T12:02:15.701Z,6.30
2018-02-01T12:04:43.883Z,6.10
2018-02-01T12:07:12.058Z,6.27
2018-02-01T12:09:40.217Z,5.93
2018-02-01T12:12:08.392Z,5.93
2018-02-01T12:14:36.565Z,5.60
2018-02-01T12:17:04.724Z,5.20
2018-02-01T12:19:32.881Z,5.60
2018-02-01T12:22:01.043Z,4.70
2018-02-01T12:24:29.981Z,3.90
2018-02-01T12:26:58.176Z,3.60
2018-02-01T12:29:26.393Z,5.00
2018-02-01T12:31:55.322Z,3.57
2018-02-01T12:34:23.495Z,4.13
2018-02-01T12:36:51.667Z,4.43
2018-02-01T12:39:19.938Z,4.17
2018-02-01T12:41:48.108Z,3.23
2018-02-01T12:44:16.267Z,3.57
2018-02-01T12:46:44.524Z,3.23
2018-02-01T12:49:12.781Z,3.60
2018-02-01T12:51:40.942Z,3.70
2018-02-01T12:54:09.130Z,2.50
2018-02-01T12:56:37.307Z,3.40
2018-02-01T12:59:05.477Z,2.90
2018-02-01T13:01:33.674Z,2.60
2018-02-01T13:04:02.606Z,2.70
2018-02-01T13:06:30.778Z,2.50
2018-02-01T13:08:59.022Z,2.40
2018-02-01T13:11:27.974Z,3.23
2018-02-01T13:13:56.138Z,2.50
2018-02-01T13:16:24.309Z,2.30
2018-02-01T13:18:52.468Z,2.53
2018-02-01T13:21:20.640Z,2.10
2018-02-01T13:23:48.841Z,2.23
2018-02-01T13:26:16.997Z,2.87
2018-02-01T13:28:45.222Z,2.47
2018-02-01T13:31:14.207Z,2.63
2018-02-01T13:33:42.367Z,2.23
2018-02-01T13:36:10.526Z,2.23
2018-02-01T13:38:38.731Z,2.70
2018-02-01T13:41:06.906Z,2.20
2018-02-01T13:43:35.083Z,1.60
2018-02-01T13:46:03.254Z,2.00
2018-02-01T13:48:31.434Z,2.60
2018-02-01T13:51:00.375Z,2.03
2018-02-01T13:53:28.543Z,2.40
2018-02-01T13:55:56.706Z,2.13
2018-02-01T13:58:24.872Z,2.67
2018-02-01T14:00:53.810Z,2.67
2018-02-01T14:03:21.983Z,3.00
2018-02-01T14:05:50.151Z,2.40
2018-02-01T14:08:18.317Z,2.40
2018-02-01T14:10:46.475Z,2.73
2018-02-01T14:13:14.647Z,2.40
2018-02-01T14:15:42.833Z,2.27
2018-02-01T14:18:10.993Z,2.33
2018-02-01T14:20:39.162Z,1.73
2018-02-01T14:23:07.339Z,1.90
2018-02-01T14:25:35.505Z,1.90
2018-02-01T14:28:04.591Z,2.10
2018-02-01T14:30:33.546Z,2.50
2018-02-01T14:33:01.713Z,2.30
2018-02-01T14:35:29.870Z,2.10
2018-02-01T14:37:58.026Z,2.70
2018-02-01T14:40:26.187Z,2.27
2018-02-01T14:42:55.158Z,3.17
2018-02-01T14:45:23.327Z,2.80
2018-02-01T14:47:51.513Z,2.27
2018-02-01T14:50:19.782Z,2.37
2018-02-01T14:52:47.964Z,2.20
2018-02-01T14:55:16.121Z,2.00
2018-02-01T14:57:44.274Z,2.40
2018-02-01T15:00:12.445Z,2.47
2018-02-01T15:02:40.614Z,2.00
2018-02-01T15:05:08.781Z,2.77
2018-02-01T15:07:36.952Z,2.50
2018-02-01T15:10:05.117Z,2.33
2018-02-01T15:12:33.301Z,2.80
2018-02-01T15:15:01.473Z,1.90
2018-02-01T15:17:29.631Z,2.73
2018-02-01T15:19:58.569Z,2.70
2018-02-01T15:22:26.728Z,2.40
2018-02-01T15:24:54.923Z,2.80
2018-02-01T15:27:23.117Z,2.50
2018-02-01T15:29:51.305Z,2.57
2018-02-01T15:32:20.236Z,2.97
2018-02-01T15:34:48.406Z,2.83
2018-02-01T15:37:16.565Z,2.53
2018-02-01T15:39:44.745Z,2.80
2018-02-01T15:42:12.902Z,2.70
2018-02-01T15:44:41.855Z,3.27
2018-02-01T15:47:10.052Z,3.33
2018-02-01T15:49:38.230Z,3.23
2018-02-01T15:52:06.397Z,3.17
2018-02-01T15:54:35.356Z,3.37
2018-02-01T15:57:03.573Z,2.90
2018-02-01T15:59:31.706Z,3.10
2018-02-01T16:01:59.875Z,2.47
2018-02-01T16:04:28.053Z,3.10
2018-02-01T16:06:56.213Z,3.30
2018-02-01T16:09:24.372Z,3.70
2018-02-01T16:11:52.534Z,3.10
2018-02-01T16:14:21.471Z,3.13
2018-02-01T16:16:49.638Z,3.00
2018-02-01T16:19:17.811Z,2.90
2018-02-01T16:21:45.998Z,2.90
2018-02-01T16:24:14.180Z,3.60
2018-02-01T16:26:42.339Z,2.90
2018-02-01T16:29:10.566Z,3.20
2018-02-01T16:31:39.499Z,3.33
2018-02-01T16:34:07.665Z,3.20
2018-02-01T16:36:35.832Z,3.13
2018-02-01T16:39:04.039Z,3.03
2018-02-01T16:41:32.194Z,3.60
2018-02-01T16:44:00.382Z,3.80
2018-02-01T16:46:28.553Z,3.77
2018-02-01T16:48:56.705Z,3.03
2018-02-01T18:13:22.620Z,4.83
2018-02-01T18:15:50.827Z,13.00
2018-02-01T18:18:19.018Z,8.30
2018-02-01T18:20:47.988Z,6.67
2018-02-01T18:23:16.162Z,5.60
2018-02-01T18:25:44.357Z,5.83
2018-02-01T18:28:13.295Z,6.50
2018-02-01T18:30:41.459Z,5.57
2018-02-01T18:33:09.626Z,5.83
2018-02-01T18:35:37.799Z,6.43
2018-02-01T18:38:05.992Z,6.13
2018-02-01T18:40:34.162Z,7.30
2018-02-01T18:43:02.347Z,6.67
2018-02-01T18:45:30.516Z,6.47
2018-02-01T18:47:58.746Z,6.90
2018-02-01T18:50:26.920Z,7.60
2018-02-01T18:52:55.867Z,7.53
2018-02-01T18:55:24.037Z,8.53
2018-02-01T18:57:52.211Z,7.13
2018-02-01T19:00:20.408Z,7.90
2018-02-01T19:02:48.585Z,7.90
2018-02-01T19:05:16.765Z,8.17
2018-02-01T19:07:44.943Z,6.47
2018-02-01T19:10:13.146Z,3.03
2018-02-01T19:12:42.118Z,3.07
2018-02-01T19:15:10.311Z,1.63
2018-02-01T19:17:39.314Z,1.73
2018-02-01T19:20:08.273Z,1.80
2018-02-01T19:22:36.470Z,1.50
2018-02-01T19:25:05.406Z,1.03
2018-02-01T19:27:33.607Z,0.90
2018-02-01T19:30:01.811Z,1.10
2018-02-01T19:32:30.760Z,1.17
2018-02-01T19:34:59.731Z,1.00
2018-02-01T19:37:27.917Z,1.67
2018-02-01T19:39:56.101Z,1.10
2018-02-01T19:42:24.282Z,0.97
2018-02-01T19:44:52.462Z,0.90
2018-02-01T19:47:20.684Z,0.80
2018-02-01T19:49:48.866Z,0.70
2018-02-01T19:52:17.038Z,0.60
2018-02-01T19:54:45.286Z,0.60
2018-02-01T19:57:13.483Z,0.60
2018-02-01T19:59:41.680Z,0.60
2018-02-01T20:02:09.855Z,0.50
2018-02-01T20:04:38.028Z,0.50
2018-02-01T20:07:06.209Z,0.60
2018-02-01T20:09:34.392Z,0.83
2018-02-01T20:12:02.607Z,0.70
2018-02-01T20:14:30.790Z,0.50
2018-02-01T20:16:59.727Z,0.70
2018-02-01T20:19:27.901Z,0.90
2018-02-01T20:21:57.100Z,0.90
2018-02-01T20:24:25.294Z,0.60
2018-02-01T20:26:53.477Z,1.23
2018-02-01T20:29:21.674Z,1.13
2018-02-01T20:31:49.879Z,1.17
2018-02-01T20:34:18.049Z,0.80
2018-02-01T20:36:46.226Z,0.80
2018-02-01T20:39:14.487Z,0.50
2018-02-01T20:41:43.443Z,0.70
2018-02-01T20:44:11.646Z,0.53
2018-02-01T20:46:40.591Z,1.00
2018-02-01T20:49:08.757Z,0.53
2018-02-01T20:51:36.925Z,0.63
2018-02-01T20:54:05.112Z,1.00
2018-02-01T20:56:33.278Z,0.70
2018-02-01T20:59:01.473Z,1.30
2018-02-01T21:01:29.652Z,0.83
2018-02-01T21:03:57.827Z,0.50
2018-02-01T21:06:25.996Z,0.63
2018-02-01T21:08:54.927Z,0.43
2018-02-01T21:11:23.873Z,0.40
2018-02-01T21:13:52.077Z,0.40
2018-02-01T21:16:20.241Z,0.70
2018-02-01T21:18:49.186Z,0.30
2018-02-01T21:21:17.384Z,0.30
2018-02-01T21:23:45.542Z,0.73
2018-02-01T21:26:13.724Z,0.73
2018-02-01T21:28:41.885Z,0.90
2018-02-01T21:31:10.047Z,0.40
2018-02-01T21:33:38.983Z,0.40
2018-02-01T21:36:07.185Z,0.40
2018-02-01T21:38:35.373Z,0.30
2018-02-01T21:41:03.564Z,0.50
2018-02-01T21:43:31.747Z,0.50
2018-02-01T21:45:59.979Z,0.40
2018-02-01T21:48:28.167Z,0.50
2018-02-01T21:50:56.342Z,0.40
2018-02-01T21:53:24.538Z,0.70
2018-02-01T21:55:53.480Z,0.50
2018-02-01T21:58:21.641Z,0.53
2018-02-01T22:00:49.798Z,0.50
2018-02-01T22:03:18.002Z,0.90
2018-02-01T22:05:46.171Z,0.83
2018-02-01T22:08:14.339Z,0.70
2018-02-01T22:10:42.506Z,0.53
2018-02-01T22:13:10.699Z,0.40
2018-02-01T22:15:38.867Z,0.37
2018-02-01T22:18:07.043Z,0.33
2018-02-01T22:20:35.224Z,0.40
2018-02-01T22:23:03.459Z,0.50
2018-02-01T22:25:31.639Z,0.40
2018-02-01T22:27:59.822Z,0.30
2018-02-01T22:30:27.986Z,0.43
2018-02-01T22:32:56.148Z,0.50
2018-02-01T22:35:25.083Z,0.50
2018-02-01T22:37:53.243Z,0.50
2018-02-01T22:40:21.440Z,0.40
2018-02-01T22:42:49.644Z,0.40
2018-02-01T22:45:17.828Z,0.40
2018-02-01T22:47:46.788Z,0.30
2018-02-01T22:50:14.950Z,0.30
2018-02-01T22:52:43.120Z,0.67
2018-02-01T22:55:11.286Z,0.30
2018-02-01T22:57:39.445Z,0.43
2018-02-01T23:00:07.613Z,0.40
2018-02-01T23:02:36.529Z,0.30
2018-02-01T23:05:04.698Z,0.80
2018-02-01T23:07:32.870Z,0.50
2018-02-01T23:10:01.028Z,0.40
2018-02-01T23:12:29.200Z,0.70
2018-02-01T23:14:57.373Z,0.40
2018-02-01T23:17:26.327Z,1.33
2018-02-01T23:19:54.503Z,1.10
2018-02-01T23:22:22.666Z,0.40
2018-02-01T23:24:50.834Z,0.40
2018-02-01T23:27:19.012Z,0.40
2018-02-01T23:29:47.179Z,0.50
2018-02-01T23:32:15.364Z,1.00
2018-02-01T23:34:44.329Z,1.60
2018-02-01T23:37:12.542Z,2.27
2018-02-01T23:39:40.702Z,1.87
2018-02-01T23:42:08.880Z,1.40
2018-02-01T23:44:37.051Z,0.60
2018-02-01T23:47:05.229Z,3.07
2018-02-01T23:49:33.403Z,7.70
2018-02-01T23:52:02.334Z,0.70
2018-02-01T23:54:31.272Z,1.40
2018-02-01T23:56:59.438Z,3.03
2018-02-01T23:59:27.625Z,3.43
